createdAt,value
2023-05-05T00:01:16.142Z,52.30
2023-05-05T00:03:37.957Z,51.97
2023-05-05T00:05:59.860Z,52.07
2023-05-05T00:08:22.275Z,52.37
2023-05-05T00:10:52.377Z,52.39
2023-05-05T00:13:15.196Z,52.32
2023-05-05T00:15:38.257Z,52.41
2023-05-05T00:17:59.970Z,52.09
2023-05-05T00:20:22.929Z,52.12
2023-05-05T00:22:44.565Z,52.00
2023-05-05T00:25:07.111Z,52.37
2023-05-05T00:27:28.779Z,52.13
2023-05-05T00:29:50.700Z,51.82
2023-05-05T00:32:12.315Z,51.40
2023-05-05T00:34:34.121Z,51.98
2023-05-05T00:36:55.821Z,51.76
2023-05-05T00:39:17.495Z,51.51
2023-05-05T00:41:39.182Z,51.51
2023-05-05T00:44:00.900Z,51.82
2023-05-05T00:46:26.935Z,51.74
2023-05-05T00:48:48.945Z,52.32
2023-05-05T00:51:10.733Z,52.25
2023-05-05T00:53:33.097Z,52.33
2023-05-05T00:55:55.007Z,52.80
2023-05-05T00:58:18.097Z,54.01
2023-05-05T01:00:40.261Z,54.03
2023-05-05T01:03:02.175Z,54.49
2023-05-05T01:05:27.002Z,54.63
2023-05-05T01:08:22.995Z,54.97
2023-05-05T01:10:53.162Z,55.56
2023-05-05T01:13:31.610Z,56.72
2023-05-05T01:16:27.657Z,56.70
2023-05-05T01:19:03.931Z,56.80
2023-05-05T01:21:41.306Z,57.48
2023-05-05T01:25:03.352Z,57.89
2023-05-05T01:28:00.142Z,58.28
2023-05-05T01:31:08.532Z,57.74
2023-05-05T01:33:43.890Z,58.13
2023-05-05T01:36:22.623Z,57.81
2023-05-05T01:38:46.725Z,57.74
2023-05-05T01:41:19.373Z,58.30
2023-05-05T01:43:45.781Z,58.62
2023-05-05T01:46:08.853Z,59.01
2023-05-05T01:48:33.376Z,59.01
2023-05-05T01:50:55.337Z,58.69
2023-05-05T01:53:20.441Z,58.68
2023-05-05T01:55:43.321Z,58.94
2023-05-05T01:58:07.701Z,58.78
2023-05-05T02:00:31.755Z,58.84
2023-05-05T02:02:59.826Z,58.80
2023-05-05T02:05:24.988Z,58.46
2023-05-05T02:07:47.318Z,58.30
2023-05-05T02:10:13.531Z,58.25
2023-05-05T02:12:37.308Z,58.01
2023-05-05T02:15:02.648Z,57.83
2023-05-05T02:17:27.591Z,57.84
2023-05-05T02:19:52.975Z,57.91
2023-05-05T02:22:16.538Z,57.74
2023-05-05T02:24:38.574Z,57.58
2023-05-05T02:27:06.015Z,57.56
2023-05-05T02:29:48.738Z,57.66
2023-05-05T02:32:20.439Z,57.53
2023-05-05T02:34:46.335Z,57.72
2023-05-05T02:37:19.677Z,57.49
2023-05-05T02:39:51.584Z,57.92
2023-05-05T02:42:21.624Z,57.72
2023-05-05T02:44:46.329Z,57.78
2023-05-05T02:47:09.092Z,57.60
2023-05-05T02:49:31.448Z,57.82
2023-05-05T02:51:55.311Z,58.02
2023-05-05T02:54:21.469Z,57.76
2023-05-05T02:56:49.423Z,58.02
2023-05-05T02:59:53.125Z,57.82
2023-05-05T03:02:31.780Z,58.12
2023-05-05T03:05:02.799Z,58.46
2023-05-05T03:07:31.548Z,58.70
2023-05-05T03:10:09.497Z,58.68
2023-05-05T03:12:58.535Z,58.72
2023-05-05T03:15:41.480Z,58.96
2023-05-05T03:18:04.321Z,58.53
2023-05-05T03:20:26.709Z,58.79
2023-05-05T03:22:50.911Z,58.99
2023-05-05T03:25:13.054Z,59.28
2023-05-05T03:27:35.016Z,59.41
2023-05-05T03:29:57.390Z,59.64
2023-05-05T03:32:20.901Z,59.93
2023-05-05T03:34:42.799Z,60.08
2023-05-05T03:37:04.676Z,60.51
2023-05-05T03:39:26.471Z,60.52
2023-05-05T03:41:49.231Z,60.56
2023-05-05T03:44:13.378Z,60.38
2023-05-05T03:46:35.979Z,60.74
2023-05-05T03:48:58.845Z,60.72
2023-05-05T03:51:22.065Z,60.86
2023-05-05T03:53:43.817Z,61.09
2023-05-05T03:56:05.910Z,61.29
2023-05-05T03:58:27.823Z,61.27
2023-05-05T04:00:49.484Z,61.37
2023-05-05T04:03:12.249Z,62.20
2023-05-05T04:05:34.096Z,62.96
2023-05-05T04:07:57.884Z,63.12
2023-05-05T04:10:20.065Z,62.87
2023-05-05T04:12:41.855Z,62.69
2023-05-05T04:15:04.052Z,63.02
2023-05-05T04:17:26.358Z,62.81
2023-05-05T04:19:48.187Z,62.43
2023-05-05T04:22:09.930Z,62.36
2023-05-05T04:24:31.763Z,62.38
2023-05-05T04:26:54.574Z,62.65
2023-05-05T04:29:16.767Z,62.79
2023-05-05T04:31:38.572Z,62.98
2023-05-05T04:34:00.434Z,63.13
2023-05-05T04:36:22.393Z,63.09
2023-05-05T04:38:44.691Z,62.86
2023-05-05T04:41:06.671Z,62.95
2023-05-05T04:43:29.506Z,63.14
2023-05-05T04:45:55.891Z,63.35
2023-05-05T04:48:21.284Z,63.11
2023-05-05T04:50:42.934Z,63.27
2023-05-05T04:53:04.733Z,63.47
2023-05-05T04:55:26.580Z,63.02
2023-05-05T04:57:48.300Z,63.45
2023-05-05T05:00:11.028Z,63.12
2023-05-05T05:02:33.092Z,63.27
2023-05-05T05:04:54.939Z,63.29
2023-05-05T05:07:16.715Z,63.30
2023-05-05T05:09:38.464Z,63.17
2023-05-05T05:12:03.054Z,63.21
2023-05-05T05:14:24.790Z,62.96
2023-05-05T05:16:51.051Z,63.18
2023-05-05T05:19:14.345Z,63.24
2023-05-05T05:21:36.237Z,63.49
2023-05-05T05:23:58.389Z,63.52
2023-05-05T05:26:21.405Z,63.37
2023-05-05T05:28:43.917Z,63.16
2023-05-05T05:31:05.679Z,63.07
2023-05-05T05:33:27.492Z,63.15
2023-05-05T05:35:50.851Z,63.56
2023-05-05T05:38:15.221Z,63.21
2023-05-05T05:40:37.374Z,63.40
2023-05-05T05:42:59.106Z,63.21
2023-05-05T05:45:23.337Z,63.15
2023-05-05T05:47:45.234Z,62.97
2023-05-05T05:50:07.898Z,63.01
2023-05-05T05:52:30.502Z,62.90
2023-05-05T05:54:52.362Z,63.12
2023-05-05T05:57:14.164Z,63.15
2023-05-05T05:59:36.252Z,63.09
2023-05-05T06:01:59.153Z,62.99
2023-05-05T06:04:21.172Z,63.03
2023-05-05T06:06:43.784Z,62.94
2023-05-05T06:09:05.760Z,62.65
2023-05-05T06:11:28.498Z,62.73
2023-05-05T06:13:50.415Z,62.73
2023-05-05T06:16:12.549Z,62.52
2023-05-05T06:18:38.202Z,62.49
2023-05-05T06:21:00.316Z,62.43
2023-05-05T06:23:24.316Z,62.61
2023-05-05T06:25:51.626Z,62.57
2023-05-05T06:28:13.313Z,62.35
2023-05-05T06:30:35.082Z,62.11
2023-05-05T06:32:58.606Z,62.29
2023-05-05T06:35:22.116Z,62.36
2023-05-05T06:37:44.348Z,62.42
2023-05-05T06:40:07.953Z,62.27
2023-05-05T06:42:30.869Z,62.13
2023-05-05T06:44:53.637Z,61.62
2023-05-05T06:47:16.085Z,61.77
2023-05-05T06:49:37.765Z,61.45
2023-05-05T06:51:59.668Z,61.36
2023-05-05T06:54:21.424Z,61.22
2023-05-05T06:56:43.171Z,61.00
2023-05-05T06:59:04.994Z,60.93
2023-05-05T07:01:26.849Z,60.59
2023-05-05T07:03:48.774Z,60.51
2023-05-05T07:06:11.388Z,60.02
2023-05-05T07:08:33.120Z,59.73
2023-05-05T07:10:55.266Z,59.89
2023-05-05T07:13:17.401Z,60.54
2023-05-05T07:15:46.391Z,60.07
2023-05-05T07:18:08.215Z,59.87
2023-05-05T07:20:30.053Z,59.50
2023-05-05T07:22:51.740Z,59.48
2023-05-05T07:25:13.478Z,59.22
2023-05-05T07:27:37.264Z,59.14
2023-05-05T07:29:59.164Z,58.84
2023-05-05T07:32:21.052Z,58.62
2023-05-05T07:34:42.884Z,58.33
2023-05-05T07:37:05.261Z,58.07
2023-05-05T07:39:27.103Z,58.03
2023-05-05T07:41:49.217Z,57.88
2023-05-05T07:44:11.486Z,57.60
2023-05-05T07:46:33.334Z,57.73
2023-05-05T07:48:55.184Z,56.54
2023-05-05T07:51:17.513Z,55.76
2023-05-05T07:53:41.219Z,55.48
2023-05-05T07:56:03.532Z,54.98
2023-05-05T07:58:25.382Z,54.30
2023-05-05T08:00:47.889Z,53.15
2023-05-05T08:03:11.942Z,53.22
2023-05-05T08:05:33.933Z,53.81
2023-05-05T08:07:55.811Z,53.02
2023-05-05T08:10:17.632Z,53.15
2023-05-05T08:12:40.398Z,53.11
2023-05-05T08:15:02.391Z,52.77
2023-05-05T08:17:26.248Z,52.21
2023-05-05T08:19:52.175Z,50.93
2023-05-05T08:22:14.138Z,50.73
2023-05-05T08:24:36.188Z,49.75
2023-05-05T08:26:57.962Z,49.99
2023-05-05T08:29:19.764Z,50.31
2023-05-05T08:31:41.545Z,49.92
2023-05-05T08:34:05.900Z,49.59
2023-05-05T08:36:29.054Z,48.38
2023-05-05T08:38:51.296Z,48.40
2023-05-05T08:41:17.154Z,48.01
2023-05-05T08:43:39.394Z,46.61
2023-05-05T08:46:01.648Z,46.06
2023-05-05T08:48:28.337Z,46.59
2023-05-05T08:51:00.323Z,46.62
2023-05-05T08:54:02.501Z,46.75
2023-05-05T08:56:33.976Z,45.13
2023-05-05T08:58:57.695Z,45.30
2023-05-05T09:01:21.221Z,45.38
2023-05-05T09:03:44.629Z,45.29
2023-05-05T09:06:07.259Z,45.20
2023-05-05T09:08:29.633Z,44.77
2023-05-05T09:10:52.199Z,44.92
2023-05-05T09:13:18.474Z,45.01
2023-05-05T09:15:42.048Z,45.47
2023-05-05T09:18:09.391Z,44.88
2023-05-05T09:20:37.324Z,44.96
2023-05-05T09:23:11.936Z,44.76
2023-05-05T09:25:33.616Z,44.90
2023-05-05T09:27:55.316Z,44.93
2023-05-05T09:30:29.448Z,45.16
2023-05-05T09:32:54.701Z,45.19
2023-05-05T09:35:19.148Z,44.77
2023-05-05T09:37:41.642Z,44.81
2023-05-05T09:40:03.595Z,45.03
2023-05-05T09:42:25.308Z,45.42
2023-05-05T09:44:48.160Z,45.85
2023-05-05T09:47:21.974Z,45.37
2023-05-05T09:49:44.196Z,45.91
2023-05-05T09:52:16.452Z,46.10
2023-05-05T09:54:38.476Z,46.24
2023-05-05T09:57:00.257Z,45.61
2023-05-05T09:59:23.176Z,45.58
2023-05-05T10:01:44.998Z,45.29
2023-05-05T10:04:06.794Z,44.92
2023-05-05T10:06:48.214Z,45.75
2023-05-05T10:09:10.782Z,45.99
2023-05-05T10:11:34.531Z,45.84
2023-05-05T10:13:56.811Z,46.18
2023-05-05T10:16:20.864Z,45.83
2023-05-05T10:18:46.943Z,46.41
2023-05-05T10:21:10.668Z,46.50
2023-05-05T10:23:41.810Z,46.29
2023-05-05T10:26:08.201Z,46.41
2023-05-05T10:28:54.976Z,46.55
2023-05-05T10:31:30.596Z,46.75
2023-05-05T10:34:10.625Z,46.66
2023-05-05T10:36:34.247Z,46.83
2023-05-05T10:38:57.814Z,46.89
2023-05-05T10:41:21.382Z,46.62
2023-05-05T10:43:43.878Z,46.91
2023-05-05T10:46:06.784Z,46.77
2023-05-05T10:48:39.838Z,47.13
2023-05-05T10:51:39.920Z,47.09
2023-05-05T10:54:20.736Z,46.79
2023-05-05T10:56:43.524Z,46.41
2023-05-05T10:59:37.138Z,46.82
2023-05-05T11:01:58.902Z,46.95
2023-05-05T11:04:23.336Z,47.98
2023-05-05T11:07:09.129Z,48.50
2023-05-05T11:09:32.322Z,48.40
2023-05-05T11:12:07.133Z,48.45
2023-05-05T11:14:28.769Z,48.29
2023-05-05T11:16:51.109Z,48.68
2023-05-05T11:19:43.957Z,49.01
2023-05-05T11:22:05.664Z,49.97
2023-05-05T11:24:31.292Z,51.13
2023-05-05T11:26:53.109Z,51.58
2023-05-05T11:29:14.779Z,53.19
2023-05-05T11:31:36.679Z,55.67
2023-05-05T11:34:29.072Z,57.47
2023-05-05T11:36:53.756Z,59.39
2023-05-05T11:39:54.330Z,60.96
2023-05-05T11:42:27.261Z,62.47
2023-05-05T11:44:49.665Z,63.64
2023-05-05T11:47:11.324Z,63.90
2023-05-05T11:49:34.924Z,64.96
2023-05-05T11:51:58.214Z,65.80
2023-05-05T11:54:21.558Z,66.66
2023-05-05T11:56:52.131Z,67.87
2023-05-05T11:59:13.845Z,68.57
2023-05-05T12:01:41.503Z,69.16
2023-05-05T12:04:04.199Z,69.88
2023-05-05T12:06:26.857Z,70.27
2023-05-05T12:08:48.536Z,70.39
2023-05-05T12:11:11.616Z,70.71
2023-05-05T12:13:33.408Z,70.48
2023-05-05T12:15:55.081Z,70.86
2023-05-05T12:18:20.843Z,71.20
2023-05-05T12:20:42.595Z,71.29
2023-05-05T12:23:04.778Z,71.56
2023-05-05T12:25:36.872Z,71.82
2023-05-05T12:27:58.673Z,72.50
2023-05-05T12:30:21.754Z,72.55
2023-05-05T12:32:45.068Z,71.67
2023-05-05T12:35:09.861Z,71.57
2023-05-05T12:37:32.465Z,72.06
2023-05-05T12:39:57.172Z,72.43
2023-05-05T12:42:19.454Z,71.58
2023-05-05T12:44:43.703Z,71.88
2023-05-05T12:47:07.018Z,71.35
2023-05-05T12:49:29.191Z,71.45
2023-05-05T12:51:56.532Z,71.87
2023-05-05T12:54:19.464Z,72.08
2023-05-05T12:56:50.713Z,71.71
2023-05-05T12:59:30.157Z,71.53
2023-05-05T13:01:54.273Z,71.53
2023-05-05T13:04:17.391Z,71.90
2023-05-05T13:06:44.999Z,72.11
2023-05-05T13:09:09.997Z,71.89
2023-05-05T13:11:39.813Z,71.80
2023-05-05T13:14:01.977Z,72.11
2023-05-05T13:16:24.224Z,72.26
2023-05-05T13:18:50.461Z,72.45
2023-05-05T13:21:12.889Z,72.85
2023-05-05T13:23:34.679Z,73.22
2023-05-05T13:25:56.966Z,73.21
2023-05-05T13:28:18.664Z,73.17
2023-05-05T13:30:42.806Z,73.22
2023-05-05T13:33:05.111Z,73.13
2023-05-05T13:35:27.311Z,73.31
2023-05-05T13:37:49.094Z,73.52
2023-05-05T13:40:13.454Z,73.46
2023-05-05T13:42:35.180Z,73.50
2023-05-05T13:44:56.922Z,73.95
2023-05-05T13:47:18.742Z,73.96
2023-05-05T13:49:40.651Z,73.88
2023-05-05T13:52:02.839Z,74.32
2023-05-05T13:54:24.576Z,74.27
2023-05-05T13:56:46.668Z,73.94
2023-05-05T13:59:09.303Z,74.49
2023-05-05T14:01:31.284Z,74.83
2023-05-05T14:03:54.458Z,75.35
2023-05-05T14:06:18.317Z,75.34
2023-05-05T14:08:40.289Z,75.94
2023-05-05T14:11:03.190Z,76.02
2023-05-05T14:13:25.141Z,75.66
2023-05-05T14:15:47.311Z,75.23
2023-05-05T14:18:09.657Z,75.94
2023-05-05T14:20:31.755Z,76.25
2023-05-05T14:22:54.729Z,75.74
2023-05-05T14:25:16.681Z,76.25
2023-05-05T14:27:40.386Z,75.97
2023-05-05T14:30:04.182Z,75.87
2023-05-05T14:32:26.755Z,75.08
2023-05-05T14:34:50.431Z,73.62
2023-05-05T14:37:12.682Z,73.16
2023-05-05T14:39:35.822Z,71.41
2023-05-05T14:41:58.229Z,69.88
2023-05-05T14:44:20.376Z,69.19
2023-05-05T14:46:44.677Z,68.90
2023-05-05T14:49:07.592Z,68.44
2023-05-05T14:51:29.703Z,68.90
2023-05-05T14:53:51.517Z,68.73
2023-05-05T14:56:14.245Z,68.46
2023-05-05T14:58:36.240Z,68.37
2023-05-05T15:00:58.161Z,68.54
2023-05-05T15:03:20.667Z,68.08
2023-05-05T15:05:42.705Z,68.23
2023-05-05T15:08:04.800Z,67.94
2023-05-05T15:10:26.601Z,68.49
2023-05-05T15:12:48.772Z,68.08
2023-05-05T15:15:11.433Z,67.13
2023-05-05T15:17:33.415Z,67.03
2023-05-05T15:19:55.152Z,67.27
2023-05-05T15:22:16.922Z,67.92
2023-05-05T15:24:38.999Z,68.38
2023-05-05T15:27:00.787Z,68.09
2023-05-05T15:29:22.782Z,67.93
2023-05-05T15:31:45.653Z,67.87
2023-05-05T15:34:07.587Z,67.92
2023-05-05T15:36:29.234Z,67.94
2023-05-05T15:38:51.042Z,67.72
2023-05-05T15:41:12.928Z,68.18
2023-05-05T15:43:35.158Z,67.39
2023-05-05T15:45:57.362Z,66.70
2023-05-05T15:48:19.115Z,66.61
2023-05-05T15:50:41.575Z,66.57
2023-05-05T15:53:03.278Z,65.75
2023-05-05T15:55:25.634Z,65.22
2023-05-05T15:57:47.361Z,65.45
2023-05-05T16:00:10.322Z,65.75
2023-05-05T16:02:32.590Z,65.50
2023-05-05T16:04:55.076Z,64.60
2023-05-05T16:07:18.594Z,64.75
2023-05-05T16:09:40.295Z,64.31
2023-05-05T16:12:02.830Z,64.35
2023-05-05T16:14:25.045Z,64.24
2023-05-05T16:16:46.971Z,63.96
2023-05-05T16:19:09.149Z,63.18
2023-05-05T16:21:31.717Z,62.69
2023-05-05T16:23:54.267Z,62.69
2023-05-05T16:26:16.781Z,62.79
2023-05-05T16:28:38.808Z,63.24
2023-05-05T16:31:02.508Z,63.65
2023-05-05T16:33:24.713Z,63.68
2023-05-05T16:35:47.996Z,63.25
2023-05-05T16:38:10.595Z,62.86
2023-05-05T16:40:33.229Z,62.26
2023-05-05T16:42:56.627Z,62.33
2023-05-05T16:45:18.626Z,62.36
2023-05-05T16:47:40.971Z,61.91
2023-05-05T16:50:04.593Z,61.19
2023-05-05T16:52:26.964Z,61.13
2023-05-05T16:54:55.660Z,61.10
2023-05-05T16:57:18.227Z,61.00
2023-05-05T16:59:42.298Z,61.52
2023-05-05T17:02:04.913Z,61.38
2023-05-05T17:04:27.825Z,61.16
2023-05-05T17:06:49.892Z,61.19
2023-05-05T17:09:12.596Z,61.41
2023-05-05T17:11:36.371Z,61.44
2023-05-05T17:13:58.670Z,61.28
2023-05-05T17:16:20.810Z,60.99
2023-05-05T17:18:42.904Z,60.78
2023-05-05T17:21:05.143Z,60.57
2023-05-05T17:23:27.231Z,60.69
2023-05-05T17:25:49.039Z,60.29
2023-05-05T17:28:10.972Z,60.16
2023-05-05T17:30:32.950Z,60.28
2023-05-05T17:32:55.271Z,60.45
2023-05-05T17:35:17.298Z,60.37
2023-05-05T17:37:39.325Z,60.53
2023-05-05T17:40:01.092Z,60.51
2023-05-05T17:42:23.095Z,60.71
2023-05-05T17:44:47.003Z,60.69
2023-05-05T17:47:10.675Z,60.95
2023-05-05T17:49:32.720Z,61.19
2023-05-05T17:51:54.882Z,61.11
2023-05-05T17:54:16.905Z,61.26
2023-05-05T17:56:38.996Z,61.42
2023-05-05T17:59:01.207Z,61.62
2023-05-05T18:01:24.745Z,61.70
2023-05-05T18:03:47.253Z,61.64
2023-05-05T18:06:09.090Z,62.16
2023-05-05T18:08:30.973Z,62.06
2023-05-05T18:10:54.326Z,62.43
2023-05-05T18:13:16.651Z,62.32
2023-05-05T18:15:40.062Z,62.50
2023-05-05T18:18:01.905Z,62.91
2023-05-05T18:20:23.657Z,62.76
2023-05-05T18:22:46.710Z,62.98
2023-05-05T18:25:09.485Z,63.22
2023-05-05T18:27:32.609Z,63.32
2023-05-05T18:29:55.730Z,63.40
2023-05-05T18:32:18.462Z,63.40
2023-05-05T18:34:41.597Z,63.46
2023-05-05T18:37:03.382Z,63.69
2023-05-05T18:39:25.781Z,63.61
2023-05-05T18:41:47.652Z,63.70
2023-05-05T18:44:10.467Z,63.81
2023-05-05T18:46:32.776Z,64.18
2023-05-05T18:48:54.965Z,64.33
2023-05-05T18:51:17.201Z,64.35
2023-05-05T18:53:40.373Z,64.43
2023-05-05T18:56:02.120Z,64.77
2023-05-05T18:58:24.440Z,64.76
2023-05-05T19:00:46.520Z,64.72
2023-05-05T19:03:08.207Z,64.83
2023-05-05T19:05:30.018Z,64.78
2023-05-05T19:07:51.763Z,64.85
2023-05-05T19:10:13.752Z,64.92
2023-05-05T19:12:35.796Z,64.95
2023-05-05T19:14:57.633Z,65.28
2023-05-05T19:17:19.373Z,65.47
2023-05-05T19:19:41.269Z,65.77
2023-05-05T19:22:03.687Z,65.76
2023-05-05T19:24:25.480Z,66.04
2023-05-05T19:26:47.154Z,66.34
2023-05-05T19:29:08.920Z,66.35
2023-05-05T19:31:31.315Z,66.49
2023-05-05T19:34:05.287Z,66.54
2023-05-05T19:36:27.870Z,67.17
2023-05-05T19:38:49.951Z,67.06
2023-05-05T19:41:12.178Z,67.06
2023-05-05T19:43:34.185Z,67.54
2023-05-05T19:45:56.250Z,67.72
2023-05-05T19:48:17.878Z,67.79
2023-05-05T19:50:39.568Z,68.26
2023-05-05T19:53:02.854Z,68.21
2023-05-05T19:55:24.752Z,68.41
2023-05-05T19:57:46.528Z,68.46
2023-05-05T20:00:10.482Z,68.73
2023-05-05T20:02:34.675Z,68.57
2023-05-05T20:04:58.138Z,69.15
2023-05-05T20:07:19.862Z,69.27
2023-05-05T20:09:41.487Z,69.20
2023-05-05T20:12:03.554Z,69.52
2023-05-05T20:14:25.685Z,69.67
2023-05-05T20:16:47.982Z,69.73
2023-05-05T20:19:10.051Z,69.92
2023-05-05T20:21:33.731Z,69.75
2023-05-05T20:23:55.797Z,69.50
2023-05-05T20:26:17.855Z,70.05
2023-05-05T20:28:43.239Z,70.14
2023-05-05T20:31:07.730Z,70.23
2023-05-05T20:33:29.527Z,70.14
2023-05-05T20:35:51.537Z,70.35
2023-05-05T20:38:14.224Z,70.19
2023-05-05T20:40:37.091Z,70.59
2023-05-05T20:42:59.884Z,70.48
2023-05-05T20:45:21.762Z,70.86
2023-05-05T20:47:43.731Z,70.80
2023-05-05T20:50:07.574Z,70.57
2023-05-05T20:52:29.374Z,70.90
2023-05-05T20:54:51.193Z,71.60
2023-05-05T20:57:13.792Z,71.04
2023-05-05T20:59:36.874Z,71.04
2023-05-05T21:01:58.707Z,71.29
2023-05-05T21:04:22.016Z,71.72
2023-05-05T21:06:43.858Z,71.53
2023-05-05T21:09:05.607Z,71.51
2023-05-05T21:11:27.382Z,72.28
2023-05-05T21:13:49.284Z,72.54
2023-05-05T21:16:11.894Z,72.35
2023-05-05T21:18:33.634Z,72.12
2023-05-05T21:20:56.237Z,72.15
2023-05-05T21:23:17.992Z,72.28
2023-05-05T21:25:39.820Z,72.35
2023-05-05T21:28:01.842Z,72.16
2023-05-05T21:30:24.101Z,72.21
2023-05-05T21:32:45.995Z,72.36
2023-05-05T21:35:09.300Z,72.21
2023-05-05T21:37:31.314Z,72.71
2023-05-05T21:39:53.177Z,72.43
2023-05-05T21:42:15.179Z,72.47
2023-05-05T21:44:36.969Z,72.43
2023-05-05T21:46:58.977Z,72.38
2023-05-05T21:49:22.480Z,72.42
2023-05-05T21:51:45.788Z,72.66
2023-05-05T21:54:07.614Z,72.79
2023-05-05T21:56:29.531Z,72.81
2023-05-05T21:58:51.808Z,72.92
2023-05-05T22:01:14.542Z,72.87
2023-05-05T22:03:36.791Z,72.92
2023-05-05T22:05:58.822Z,72.79
2023-05-05T22:08:20.703Z,73.18
2023-05-05T22:10:42.992Z,73.09
2023-05-05T22:13:05.006Z,73.23
2023-05-05T22:15:32.606Z,73.37
2023-05-05T22:17:55.236Z,73.63
2023-05-05T22:20:17.198Z,73.70
2023-05-05T22:22:39.195Z,73.58
2023-05-05T22:25:01.104Z,73.90
2023-05-05T22:27:23.215Z,73.82
2023-05-05T22:29:44.914Z,73.88
2023-05-05T22:32:06.665Z,73.92
2023-05-05T22:34:28.318Z,74.07
2023-05-05T22:36:50.109Z,73.99
2023-05-05T22:39:11.901Z,74.18
2023-05-05T22:41:33.615Z,74.49
2023-05-05T22:43:56.300Z,74.33
2023-05-05T22:46:18.082Z,74.18
2023-05-05T22:48:39.793Z,74.44
2023-05-05T22:51:01.593Z,74.38
2023-05-05T22:53:24.227Z,74.14
2023-05-05T22:55:46.057Z,74.35
2023-05-05T22:58:07.946Z,74.75
2023-05-05T23:00:30.728Z,74.87
2023-05-05T23:02:52.621Z,75.08
2023-05-05T23:05:14.329Z,75.15
2023-05-05T23:07:36.118Z,75.17
2023-05-05T23:09:57.758Z,75.22
2023-05-05T23:12:19.439Z,75.24
2023-05-05T23:14:41.988Z,75.21
2023-05-05T23:17:03.811Z,75.14
2023-05-05T23:19:26.263Z,75.23
2023-05-05T23:21:53.318Z,75.18
2023-05-05T23:24:15.590Z,75.52
2023-05-05T23:26:37.251Z,75.42
2023-05-05T23:28:58.911Z,75.22
2023-05-05T23:31:20.640Z,75.54
2023-05-05T23:33:42.337Z,75.62
2023-05-05T23:36:04.597Z,75.41
2023-05-05T23:38:26.282Z,75.34
2023-05-05T23:40:48.009Z,75.63
2023-05-05T23:43:09.746Z,75.04
2023-05-05T23:45:31.465Z,75.52
2023-05-05T23:47:53.647Z,75.46
2023-05-05T23:50:15.660Z,75.40
2023-05-05T23:52:37.383Z,75.74
2023-05-05T23:54:59.048Z,75.79
2023-05-05T23:57:20.723Z,75.61
2023-05-05T23:59:42.427Z,75.72
